Rose, Nebraska
Current Conditions -  °F | °C
As of 10:15 PM on Tuesday 25 Nov 2014 (Local Time) from KANW Reporting Station
Broken Clouds Broken Clouds  
Wind Chill: 26°   Ceiling: 6000
Heat Index: 36°   Visibility: 10mi
Dew Point: 28°   Wind: 15mph
Humidity: 75%   Direction: 300°WNW
Pressure: 29.87"   Gusts: NA
Location:  42.15°N, 99.47°W
Report Text: KANW 260415Z AUTO 30013KT 10SM SCT034 SCT046 BKN060 02/M02 A2987 RMK AO2 T00201021
Loading
Personal Weather Stations






























Interactive Weather Map New forecast layout! Learn more

10-Day Weather Forecast

Advertisements
Track Severe Weather on mobile